Time;durP1;ratioP1;P1;durP2;ratioP2;P2;SDS_P1;SDS_P2;PMS_P1;PMS_P2;Temp;Humidity;BMP_temperature;BMP_pressure;BME280_temperature;BME280_humidity;BME280_pressure;Samples;Min_cycle;Max_cycle;Signal;HPM_P1;HPM_P2
2021/12/22 00:01:50;;;;;;;16.40;7.77;;;;;;;-0.27;100.00;102056.72;4982984;28;20496;-80
2021/12/22 00:04:22;;;;;;;16.50;7.90;;;;;;;-0.29;100.00;102053.16;4974941;28;20041;-80
2021/12/22 00:06:49;;;;;;;13.87;6.53;;;;;;;-0.26;100.00;102055.00;4992313;28;20033;-80
2021/12/22 00:09:16;;;;;;;15.97;6.83;;;;;;;-0.28;100.00;102057.53;4975274;28;20136;-80
2021/12/22 00:11:43;;;;;;;17.83;7.70;;;;;;;-0.32;100.00;102061.72;4992385;28;20096;-80
2021/12/22 00:14:13;;;;;;;16.80;8.07;;;;;;;-0.24;100.00;102064.66;5012812;28;20038;-81
2021/12/22 00:16:39;;;;;;;14.60;6.60;;;;;;;-0.24;100.00;102062.06;4997514;28;20045;-80
2021/12/22 00:19:06;;;;;;;18.43;8.73;;;;;;;-0.26;100.00;102067.97;5000995;28;20043;-81
2021/12/22 00:21:37;;;;;;;13.63;6.70;;;;;;;-0.24;100.00;102062.06;4982135;28;20041;-80
2021/12/22 00:24:04;;;;;;;13.20;6.93;;;;;;;-0.29;100.00;102063.56;4985444;28;20044;-80
2021/12/22 00:26:32;;;;;;;14.73;6.77;;;;;;;-0.34;100.00;102067.63;4998540;28;20038;-81
2021/12/22 00:29:01;;;;;;;15.63;7.97;;;;;;;-0.34;100.00;102068.56;5003746;28;20045;-80
2021/12/22 00:31:28;;;;;;;13.53;7.93;;;;;;;-0.13;100.00;102062.53;5013346;28;20045;-81
2021/12/22 00:33:57;;;;;;;13.53;6.37;;;;;;;-0.20;100.00;102058.78;4984090;28;20053;-81
2021/12/22 00:36:25;;;;;;;13.83;6.90;;;;;;;-0.30;100.00;102059.19;4977425;28;20049;-80
2021/12/22 00:38:53;;;;;;;12.63;6.20;;;;;;;-0.27;100.00;102061.91;4978613;28;20060;-80
2021/12/22 00:41:19;;;;;;;16.93;7.47;;;;;;;-0.25;100.00;102056.78;5000703;28;20459;-80
2021/12/22 00:43:50;;;;;;;14.87;7.07;;;;;;;-0.26;100.00;102068.88;4989161;28;20067;-80
2021/12/22 00:46:17;;;;;;;15.30;7.17;;;;;;;-0.28;100.00;102067.91;5024888;28;20120;-80
2021/12/22 00:48:43;;;;;;;13.10;6.33;;;;;;;-0.35;100.00;102073.66;4981623;28;20068;-80
2021/12/22 00:51:10;;;;;;;11.53;6.50;;;;;;;-0.35;100.00;102078.84;4984272;28;20084;-80
2021/12/22 00:53:37;;;;;;;11.83;6.67;;;;;;;-0.39;100.00;102067.44;5017012;28;20470;-80
2021/12/22 00:56:06;;;;;;;14.67;7.27;;;;;;;-0.39;100.00;102074.34;4984882;28;20152;-80
2021/12/22 00:58:33;;;;;;;16.10;6.93;;;;;;;-0.40;100.00;102075.16;4978871;28;20135;-82
2021/12/22 01:01:01;;;;;;;16.70;6.80;;;;;;;-0.36;100.00;102075.34;5000102;28;20037;-80
2021/12/22 01:03:27;;;;;;;14.43;6.80;;;;;;;-0.31;100.00;102073.88;5003204;28;20455;-81
2021/12/22 01:05:55;;;;;;;13.90;6.83;;;;;;;-0.35;100.00;102073.66;4998174;28;20041;-80
2021/12/22 01:08:22;;;;;;;11.87;6.67;;;;;;;-0.38;100.00;102068.31;4979091;28;20046;-80
2021/12/22 01:10:49;;;;;;;14.10;6.73;;;;;;;-0.36;100.00;102070.16;4998001;28;20041;-80
2021/12/22 01:13:16;;;;;;;14.10;6.70;;;;;;;-0.26;100.00;102074.06;4995273;28;20045;-80
2021/12/22 01:15:43;;;;;;;17.63;8.10;;;;;;;-0.31;100.00;102073.88;4983241;28;20042;-81
2021/12/22 01:18:14;;;;;;;12.57;6.57;;;;;;;-0.30;100.00;102069.56;4995658;28;20487;-80
2021/12/22 01:23:33;;;;;;;15.67;6.57;;;;;;;-0.45;100.00;102079.22;5010970;28;20065;-80
2021/12/22 01:26:00;;;;;;;13.20;6.93;;;;;;;-0.37;100.00;102072.69;4984697;28;20153;-80
2021/12/22 01:28:27;;;;;;;15.73;6.60;;;;;;;-0.47;100.00;102073.09;5002830;28;20037;-80
2021/12/22 01:31:00;;;;;;;11.93;6.53;;;;;;;-0.44;100.00;102076.69;4999816;28;20045;-79
2021/12/22 01:33:27;;;;;;;15.77;8.10;;;;;;;-0.44;100.00;102081.91;4999442;28;20108;-80
2021/12/22 01:35:54;;;;;;;11.63;6.50;;;;;;;-0.41;100.00;102081.19;5011859;23;20561;-81
2021/12/22 01:38:21;;;;;;;15.00;7.27;;;;;;;-0.40;100.00;102072.56;5001417;28;20082;-83
2021/12/22 01:40:47;;;;;;;12.80;6.20;;;;;;;-0.46;100.00;102078.34;5020014;28;20041;-82
2021/12/22 01:43:16;;;;;;;13.57;7.00;;;;;;;-0.39;100.00;102074.34;5001063;28;20094;-84
2021/12/22 01:51:43;;;;;;;12.27;6.17;;;;;;;-0.54;100.00;102087.47;5021608;28;20136;-81
2021/12/22 01:54:19;;;;;;;13.67;6.37;;;;;;;-0.53;100.00;102085.78;5012617;28;20051;-82
2021/12/22 01:56:47;;;;;;;13.47;6.70;;;;;;;-0.54;100.00;102079.69;5030465;28;20041;-84
2021/12/22 01:59:14;;;;;;;12.37;6.63;;;;;;;-0.55;100.00;102077.03;4982273;28;20050;-83
2021/12/22 02:01:43;;;;;;;14.10;7.03;;;;;;;-0.56;100.00;102078.75;4997827;28;20045;-84
2021/12/22 02:04:10;;;;;;;14.07;7.03;;;;;;;-0.53;100.00;102080.56;5011404;28;20144;-82
2021/12/22 02:06:44;;;;;;;15.20;7.20;;;;;;;-0.56;100.00;102086.53;5011875;28;20041;-81
2021/12/22 02:09:31;;;;;;;10.53;6.53;;;;;;;-0.61;100.00;102086.28;5017251;28;20083;-83
2021/12/22 02:11:58;;;;;;;13.67;7.53;;;;;;;-0.51;100.00;102081.53;4999418;28;20049;-84
2021/12/22 02:14:24;;;;;;;13.47;7.57;;;;;;;-0.61;100.00;102075.91;5011081;28;20059;-84
2021/12/22 02:16:51;;;;;;;17.73;8.93;;;;;;;-0.58;100.00;102073.47;5010228;28;20048;-84
2021/12/22 02:19:18;;;;;;;17.77;8.53;;;;;;;-0.53;100.00;102076.28;5013776;28;20049;-83
2021/12/22 02:21:51;;;;;;;14.83;7.67;;;;;;;-0.49;100.00;102074.72;5002423;28;20090;-83
2021/12/22 02:24:17;;;;;;;13.90;8.03;;;;;;;-0.59;100.00;102074.31;5004828;28;20067;-83
2021/12/22 02:26:51;;;;;;;14.13;7.70;;;;;;;-0.69;100.00;102074.66;4989232;28;20097;-82
2021/12/22 02:29:21;;;;;;;16.17;8.13;;;;;;;-0.61;100.00;102078.50;5029722;28;20383;-83
2021/12/22 02:32:02;;;;;;;14.40;7.83;;;;;;;-0.62;100.00;102078.44;5000118;28;20037;-83
2021/12/22 02:34:32;;;;;;;15.47;8.23;;;;;;;-0.61;100.00;102081.09;4992214;28;20045;-82
2021/12/22 02:37:02;;;;;;;14.03;8.40;;;;;;;-0.64;100.00;102080.97;5017444;28;20064;-82
2021/12/22 02:39:29;;;;;;;16.67;7.83;;;;;;;-0.62;100.00;102071.53;5015699;28;20387;-82
2021/12/22 02:41:55;;;;;;;14.23;8.00;;;;;;;-0.63;100.00;102068.88;4995815;28;20041;-82
2021/12/22 02:44:22;;;;;;;14.17;6.83;;;;;;;-0.63;100.00;102074.97;5017435;28;20509;-82
2021/12/22 02:46:50;;;;;;;15.17;7.33;;;;;;;-0.59;100.00;102078.56;5013196;28;20040;-82
2021/12/22 02:49:17;;;;;;;13.73;7.90;;;;;;;-0.62;100.00;102079.31;5001509;28;20049;-81
2021/12/22 02:51:43;;;;;;;14.47;7.47;;;;;;;-0.65;100.00;102071.41;4992641;28;20060;-82
2021/12/22 02:54:22;;;;;;;13.70;7.17;;;;;;;-0.70;100.00;102083.25;4999616;28;20049;-82
2021/12/22 02:56:55;;;;;;;13.20;8.03;;;;;;;-0.69;100.00;102078.97;5004997;28;20103;-81
2021/12/22 03:02:15;;;;;;;15.03;8.17;;;;;;;-0.77;100.00;102078.59;5017957;28;20176;-82
2021/12/22 03:04:51;;;;;;;13.43;6.67;;;;;;;-0.71;100.00;102078.91;5023204;28;20188;-82
2021/12/22 03:07:19;;;;;;;16.03;7.13;;;;;;;-0.79;100.00;102085.41;5015920;28;20413;-83
2021/12/22 03:10:00;;;;;;;11.73;6.73;;;;;;;-0.79;100.00;102082.81;5012248;28;20103;-84
2021/12/22 03:12:29;;;;;;;11.73;6.43;;;;;;;-0.80;100.00;102085.34;5017157;28;20037;-84
2021/12/22 03:14:56;;;;;;;11.57;5.97;;;;;;;-0.79;100.00;102085.41;5015938;28;20103;-84
2021/12/22 03:17:22;;;;;;;11.17;6.63;;;;;;;-0.90;100.00;102082.31;5017927;28;20482;-85
2021/12/22 03:19:49;;;;;;;10.00;6.37;;;;;;;-0.95;100.00;102075.13;5006735;28;20049;-84
2021/12/22 03:22:19;;;;;;;10.47;5.97;;;;;;;-0.93;100.00;102082.13;5017692;28;20468;-83
2021/12/22 03:24:50;;;;;;;11.50;6.53;;;;;;;-0.87;100.00;102081.56;5032103;28;20107;-84
2021/12/22 03:27:17;;;;;;;13.03;6.57;;;;;;;-0.89;100.00;102078.00;5023439;28;20072;-83
2021/12/22 03:29:44;;;;;;;11.03;5.53;;;;;;;-0.92;100.00;102072.69;5017777;28;20045;-84
2021/12/22 03:32:11;;;;;;;11.43;6.23;;;;;;;-0.97;100.00;102066.38;5031527;28;20029;-85
2021/12/22 03:34:39;;;;;;;10.33;6.50;;;;;;;-0.96;100.00;102065.56;5032697;28;20061;-84
2021/12/22 03:37:08;;;;;;;13.60;7.03;;;;;;;-0.89;100.00;102060.75;5004221;28;20072;-83
2021/12/22 03:39:35;;;;;;;10.13;5.90;;;;;;;-0.94;100.00;102059.63;5005761;28;20044;-83
2021/12/22 03:42:06;;;;;;;12.33;5.80;;;;;;;-0.93;100.00;102057.91;5030780;28;20044;-85
2021/12/22 03:44:32;;;;;;;11.50;6.03;;;;;;;-0.96;100.00;102069.03;4997917;28;20042;-84
2021/12/22 03:47:00;;;;;;;12.13;6.43;;;;;;;-0.87;100.00;102053.91;4994698;28;20045;-85
2021/12/22 03:49:28;;;;;;;12.27;6.27;;;;;;;-0.92;100.00;102046.75;4996304;28;20037;-84
2021/12/22 03:51:55;;;;;;;12.67;7.03;;;;;;;-0.90;100.00;102056.38;4999512;28;20410;-84
2021/12/22 03:54:21;;;;;;;11.90;6.30;;;;;;;-0.90;100.00;102048.59;5007263;28;20055;-85
2021/12/22 03:56:49;;;;;;;11.83;6.97;;;;;;;-0.83;100.00;102049.78;4988897;28;20049;-83
2021/12/22 03:59:17;;;;;;;12.13;7.50;;;;;;;-0.81;100.00;102053.31;4992768;28;20369;-85
2021/12/22 04:01:44;;;;;;;11.30;6.70;;;;;;;-0.90;100.00;102043.41;5011009;28;20041;-84
2021/12/22 04:04:15;;;;;;;13.17;7.07;;;;;;;-0.86;100.00;102047.00;4999594;28;20045;-83
2021/12/22 04:06:43;;;;;;;15.17;7.43;;;;;;;-0.86;100.00;102034.94;5028452;28;20040;-83
2021/12/22 04:09:11;;;;;;;12.40;7.37;;;;;;;-0.87;100.00;102042.66;5014879;28;20049;-84
2021/12/22 04:11:38;;;;;;;12.70;7.97;;;;;;;-0.76;100.00;102040.56;5027823;28;20041;-84
2021/12/22 04:14:05;;;;;;;15.00;7.67;;;;;;;-0.77;100.00;102039.66;5017111;28;20045;-83
2021/12/22 04:16:33;;;;;;;16.57;8.50;;;;;;;-0.82;100.00;102037.69;5016583;28;20131;-84
2021/12/22 04:18:59;;;;;;;15.80;8.07;;;;;;;-0.79;100.00;102037.81;5005459;28;20095;-84
2021/12/22 04:21:26;;;;;;;13.93;7.87;;;;;;;-0.91;100.00;102038.16;5007335;28;20064;-84
2021/12/22 04:23:52;;;;;;;16.23;8.93;;;;;;;-0.92;100.00;102034.66;5000985;28;20110;-84
2021/12/22 04:26:19;;;;;;;16.70;9.03;;;;;;;-0.92;100.00;102033.78;5018246;28;20192;-84
2021/12/22 04:28:46;;;;;;;20.00;8.30;;;;;;;-0.95;100.00;102033.59;4997723;28;20127;-84
2021/12/22 04:31:13;;;;;;;21.57;10.83;;;;;;;-0.94;100.00;102031.06;5036403;28;20083;-83
2021/12/22 04:33:42;;;;;;;18.07;9.47;;;;;;;-0.89;100.00;102039.09;5018293;28;20063;-83
2021/12/22 04:36:09;;;;;;;15.17;8.83;;;;;;;-0.86;100.00;102034.03;4991621;28;20236;-85
2021/12/22 04:38:36;;;;;;;16.03;9.33;;;;;;;-0.96;100.00;102030.13;5023616;28;20044;-82
2021/12/22 04:41:03;;;;;;;15.93;8.73;;;;;;;-0.88;100.00;102030.50;5002111;28;20654;-83
2021/12/22 04:43:29;;;;;;;16.33;8.83;;;;;;;-0.91;100.00;102032.94;4985389;28;20111;-85
2021/12/22 04:45:56;;;;;;;18.13;9.20;;;;;;;-0.89;100.00;102033.91;5015940;28;20056;-84
2021/12/22 04:48:23;;;;;;;15.17;8.17;;;;;;;-0.94;100.00;102025.88;5031423;28;20048;-84
2021/12/22 04:50:49;;;;;;;17.73;10.07;;;;;;;-0.93;100.00;102019.88;5012696;28;20114;-84
2021/12/22 04:53:22;;;;;;;19.07;9.63;;;;;;;-0.96;100.00;102027.53;5021455;28;20040;-83
2021/12/22 04:55:49;;;;;;;19.60;9.43;;;;;;;-0.97;100.00;102022.28;5034110;28;20096;-85
2021/12/22 04:58:16;;;;;;;21.13;9.60;;;;;;;-0.95;100.00;102023.22;5002890;28;20044;-85
2021/12/22 05:00:43;;;;;;;18.20;9.60;;;;;;;-0.97;100.00;102022.28;4999431;28;20591;-84
2021/12/22 05:03:10;;;;;;;17.53;9.53;;;;;;;-1.06;100.00;102011.47;4986210;28;20050;-85
2021/12/22 05:05:37;;;;;;;17.70;9.83;;;;;;;-1.06;100.00;102007.16;4996328;28;20049;-85
2021/12/22 05:08:04;;;;;;;17.53;9.47;;;;;;;-1.02;100.00;102015.97;5008975;28;20045;-84
2021/12/22 05:10:31;;;;;;;16.63;9.83;;;;;;;-1.03;100.00;102019.38;5018123;28;20051;-84
2021/12/22 05:12:57;;;;;;;16.97;9.10;;;;;;;-1.10;100.00;102019.88;5011827;28;20045;-84
2021/12/22 05:15:28;;;;;;;18.73;9.60;;;;;;;-1.08;100.00;102026.06;5008689;28;21755;-84
2021/12/22 05:20:21;;;;;;;19.17;9.60;;;;;;;-0.90;100.00;102037.31;5029899;28;20045;-84
2021/12/22 05:22:48;;;;;;;16.57;9.30;;;;;;;-0.94;100.00;102040.56;4997230;28;20387;-85
2021/12/22 05:25:15;;;;;;;17.67;9.37;;;;;;;-1.00;100.00;102035.09;4998211;28;20046;-83
2021/12/22 05:27:42;;;;;;;17.67;9.60;;;;;;;-0.99;100.00;102034.28;5032999;28;20042;-85
2021/12/22 05:30:10;;;;;;;19.10;9.57;;;;;;;-1.08;100.00;102045.09;5006422;28;20091;-84
2021/12/22 05:32:36;;;;;;;16.03;7.80;;;;;;;-1.12;100.00;102030.19;4997702;28;20053;-84
2021/12/22 05:35:06;;;;;;;18.73;8.67;;;;;;;-1.12;100.00;102035.38;4987493;28;20044;-86
2021/12/22 05:37:33;;;;;;;18.50;8.73;;;;;;;-1.08;100.00;102032.13;5013628;28;20037;-86
2021/12/22 05:40:00;;;;;;;17.30;9.13;;;;;;;-0.99;100.00;102040.38;5003887;28;20049;-85
2021/12/22 05:42:27;;;;;;;19.40;9.47;;;;;;;-1.09;100.00;102038.16;5006102;28;20498;-85
2021/12/22 05:44:54;;;;;;;19.63;8.63;;;;;;;-1.05;100.00;102049.53;4985703;28;20045;-85
2021/12/22 05:47:20;;;;;;;18.63;8.30;;;;;;;-1.03;100.00;102053.09;4988873;28;20041;-86
2021/12/22 05:49:49;;;;;;;13.30;8.10;;;;;;;-1.10;100.00;102049.31;5000059;28;20044;-87
2021/12/22 05:52:16;;;;;;;19.00;9.33;;;;;;;-1.10;100.00;102057.09;5007373;28;20520;-87
2021/12/22 05:54:43;;;;;;;15.40;8.20;;;;;;;-1.08;100.00;102046.81;4997002;28;20049;-85
2021/12/22 05:57:09;;;;;;;17.33;9.00;;;;;;;-1.08;100.00;102044.22;5010187;28;20045;-88
2021/12/22 05:59:36;;;;;;;14.80;8.10;;;;;;;-1.09;100.00;102048.53;5002475;28;20034;-85
2021/12/22 06:02:03;;;;;;;17.67;8.13;;;;;;;-1.05;100.00;102049.53;5010995;28;20516;-86
2021/12/22 06:04:30;;;;;;;13.20;6.80;;;;;;;-1.11;100.00;102047.53;5006501;28;20506;-86
2021/12/22 06:06:57;;;;;;;16.27;7.57;;;;;;;-1.11;100.00;102050.13;5014055;28;20041;-87
2021/12/22 06:09:23;;;;;;;15.63;8.37;;;;;;;-1.02;100.00;102047.09;4991455;28;20042;-86
2021/12/22 06:11:50;;;;;;;12.70;7.50;;;;;;;-1.05;100.00;102052.13;4991759;28;20076;-86
2021/12/22 06:14:17;;;;;;;13.37;6.93;;;;;;;-1.04;100.00;102054.81;4987777;28;20050;-86
2021/12/22 06:16:44;;;;;;;14.17;6.83;;;;;;;-1.04;100.00;102047.03;5003793;28;20048;-88
2021/12/22 06:19:12;;;;;;;14.67;6.83;;;;;;;-1.09;100.00;102051.13;4995791;28;20041;-86
2021/12/22 06:21:39;;;;;;;13.07;7.33;;;;;;;-1.08;100.00;102052.00;4988928;28;20038;-87
2021/12/22 06:24:06;;;;;;;16.57;8.00;;;;;;;-1.13;100.00;102051.75;4991007;28;20045;-86
2021/12/22 06:26:34;;;;;;;16.37;7.53;;;;;;;-1.23;100.00;102047.84;4993721;28;20041;-87
2021/12/22 06:29:00;;;;;;;13.37;6.60;;;;;;;-1.20;100.00;102050.56;5004821;28;20045;-87
2021/12/22 06:31:27;;;;;;;14.67;7.00;;;;;;;-1.24;100.00;102059.03;5018285;28;20693;-87
2021/12/22 06:34:04;;;;;;;18.43;8.10;;;;;;;-1.20;100.00;102054.88;5014733;28;20044;-86
2021/12/22 06:36:40;;;;;;;17.00;8.33;;;;;;;-1.21;100.00;102056.56;5026378;28;20046;-85
2021/12/22 06:39:07;;;;;;;14.27;7.80;;;;;;;-1.22;100.00;102062.56;4992719;28;20044;-86
2021/12/22 06:41:34;;;;;;;15.13;7.10;;;;;;;-1.28;100.00;102057.06;5003042;28;20107;-86
2021/12/22 06:44:00;;;;;;;14.37;6.83;;;;;;;-1.34;100.00;102068.88;5005872;28;20053;-85
2021/12/22 06:46:28;;;;;;;16.53;7.67;;;;;;;-1.32;100.00;102072.41;5027529;28;20072;-88
2021/12/22 06:48:55;;;;;;;20.17;8.03;;;;;;;-1.30;100.00;102061.31;5009322;28;20044;-86
2021/12/22 06:51:21;;;;;;;17.57;7.60;;;;;;;-1.25;100.00;102058.94;4990762;28;20053;-87
2021/12/22 06:53:48;;;;;;;17.30;8.27;;;;;;;-1.17;100.00;102060.22;5017600;28;20041;-85
2021/12/22 06:56:15;;;;;;;17.10;8.13;;;;;;;-1.27;100.00;102064.03;4998279;28;20048;-84
2021/12/22 06:58:42;;;;;;;15.77;7.77;;;;;;;-1.17;100.00;102062.81;4989690;28;20045;-86
2021/12/22 07:01:12;;;;;;;15.73;8.27;;;;;;;-1.21;100.00;102072.13;5030401;28;20037;-86
2021/12/22 07:03:39;;;;;;;16.83;7.80;;;;;;;-1.21;100.00;102071.25;4993582;28;20044;-86
2021/12/22 07:06:05;;;;;;;17.17;8.70;;;;;;;-1.19;100.00;102065.31;5010320;28;20049;-85
2021/12/22 07:08:32;;;;;;;14.20;7.77;;;;;;;-1.22;100.00;102072.94;5018424;28;20067;-85
2021/12/22 07:10:59;;;;;;;18.17;7.73;;;;;;;-1.29;100.00;102068.25;5033123;28;20041;-85
2021/12/22 07:13:25;;;;;;;17.77;8.67;;;;;;;-1.34;100.00;102068.88;5035124;28;20615;-85
2021/12/22 07:15:52;;;;;;;17.83;7.60;;;;;;;-1.34;100.00;102074.94;5031920;28;20032;-87
2021/12/22 07:18:19;;;;;;;20.10;8.67;;;;;;;-1.27;100.00;102069.22;5013976;28;20383;-86
2021/12/22 07:20:46;;;;;;;16.73;8.03;;;;;;;-1.35;100.00;102065.34;5015752;28;20041;-85
2021/12/22 07:23:12;;;;;;;61.73;32.20;;;;;;;-1.31;100.00;102072.50;5002219;28;20060;-85
2021/12/22 07:25:39;;;;;;;23.87;11.43;;;;;;;-1.37;100.00;102064.38;4990317;28;20041;-86
2021/12/22 07:28:08;;;;;;;22.57;12.13;;;;;;;-1.33;100.00;102060.28;4992320;28;20501;-86
2021/12/22 07:30:35;;;;;;;18.90;8.33;;;;;;;-1.30;100.00;102061.31;5006057;28;20494;-86
2021/12/22 07:33:03;;;;;;;21.53;10.17;;;;;;;-1.26;100.00;102067.50;5016235;28;20091;-86
2021/12/22 07:35:42;;;;;;;21.03;9.67;;;;;;;-1.29;100.00;102068.25;5015408;28;20041;-86
2021/12/22 07:38:23;;;;;;;20.27;8.57;;;;;;;-1.32;100.00;102068.13;5000320;28;20098;-86
2021/12/22 07:40:50;;;;;;;19.20;9.43;;;;;;;-1.33;100.00;102057.69;5010503;28;20042;-84
2021/12/22 07:43:17;;;;;;;17.33;9.37;;;;;;;-1.34;100.00;102066.28;5012927;28;20045;-85
2021/12/22 07:45:44;;;;;;;16.30;8.17;;;;;;;-1.29;100.00;102063.06;5009806;28;20049;-86
2021/12/22 07:48:11;;;;;;;17.63;9.43;;;;;;;-1.28;100.00;102061.38;5021838;28;20298;-87
2021/12/22 07:50:38;;;;;;;18.23;8.77;;;;;;;-1.32;100.00;102054.28;5020108;28;20043;-85
2021/12/22 07:53:05;;;;;;;19.83;8.57;;;;;;;-1.32;100.00;102057.75;5016575;28;20037;-87
2021/12/22 07:55:31;;;;;;;19.87;9.23;;;;;;;-1.32;100.00;102055.16;5007885;28;20052;-87
2021/12/22 07:57:59;;;;;;;22.03;10.07;;;;;;;-1.32;100.00;102065.53;5005349;28;20037;-87
2021/12/22 08:00:28;;;;;;;17.30;8.80;;;;;;;-1.25;100.00;102059.84;5020037;28;20061;-87
2021/12/22 08:02:57;;;;;;;16.53;8.47;;;;;;;-1.25;100.00;102066.72;4996273;28;20072;-85
2021/12/22 08:05:44;;;;;;;17.87;9.27;;;;;;;-1.19;100.00;102070.50;5012667;28;20529;-88
2021/12/22 08:08:11;;;;;;;18.83;9.33;;;;;;;-1.26;100.00;102065.84;5019855;28;20413;-86
2021/12/22 08:10:37;;;;;;;21.63;10.93;;;;;;;-1.28;100.00;102061.38;5019435;28;20045;-86
2021/12/22 08:13:04;;;;;;;20.77;10.43;;;;;;;-1.23;100.00;102060.78;5002085;28;20505;-86
2021/12/22 08:15:31;;;;;;;21.20;10.07;;;;;;;-1.16;100.00;102064.59;5068921;23;20033;-80
2021/12/22 08:17:58;;;;;;;21.43;10.00;;;;;;;-1.19;100.00;102067.91;5025596;28;20640;-80
2021/12/22 08:20:25;;;;;;;21.23;11.13;;;;;;;-1.10;100.00;102057.09;5031296;28;20525;-81
2021/12/22 08:22:52;;;;;;;25.47;12.63;;;;;;;-1.15;100.00;102062.06;5040930;28;20044;-80
2021/12/22 08:25:18;;;;;;;21.97;11.50;;;;;;;-1.14;100.00;102062.94;5025244;28;20426;-79
2021/12/22 08:27:46;;;;;;;25.90;11.53;;;;;;;-1.14;100.00;102062.94;5038196;28;20073;-79
2021/12/22 08:30:13;;;;;;;21.43;10.97;;;;;;;-1.07;100.00;102065.03;5033339;28;20478;-79
2021/12/22 08:32:39;;;;;;;24.17;11.27;;;;;;;-1.02;100.00;102063.53;5038757;28;20041;-81
2021/12/22 08:35:08;;;;;;;21.57;10.63;;;;;;;-1.04;100.00;102065.19;5028849;28;20040;-80
2021/12/22 08:40:22;;;;;;;31.00;16.23;;;;;;;-1.13;100.00;102055.25;5034197;28;20075;-81
2021/12/22 08:42:49;;;;;;;48.23;25.53;;;;;;;-0.95;100.00;102059.53;5056346;28;20491;-79
2021/12/22 08:45:17;;;;;;;28.77;13.27;;;;;;;-0.97;100.00;102056.00;5019888;28;20041;-80
2021/12/22 08:47:45;;;;;;;31.93;14.03;;;;;;;-0.97;100.00;102063.78;5022006;28;20102;-83
2021/12/22 08:50:14;;;;;;;31.53;14.17;;;;;;;-0.93;100.00;102063.97;5019282;28;20041;-81
2021/12/22 08:52:40;;;;;;;28.60;13.90;;;;;;;-0.84;100.00;102060.97;5029639;28;20044;-80
2021/12/22 08:55:08;;;;;;;33.50;16.17;;;;;;;-0.78;100.00;102063.84;5021356;28;20044;-82
2021/12/22 08:57:34;;;;;;;26.67;12.93;;;;;;;-0.77;100.00;102060.44;5020500;28;20037;-82
2021/12/22 09:00:05;;;;;;;25.10;12.70;;;;;;;-0.83;100.00;102049.78;5021020;28;20059;-82
2021/12/22 09:02:32;;;;;;;22.97;11.50;;;;;;;-0.77;100.00;102051.75;5021131;28;20123;-82
2021/12/22 09:04:58;;;;;;;25.23;11.67;;;;;;;-0.78;100.00;102055.16;5022071;28;20494;-82
2021/12/22 09:07:25;;;;;;;23.20;11.40;;;;;;;-0.77;100.00;102060.44;5049395;28;20044;-83
2021/12/22 09:09:52;;;;;;;27.73;13.20;;;;;;;-0.68;100.00;102055.66;5024797;28;20098;-82
2021/12/22 09:12:18;;;;;;;22.87;12.27;;;;;;;-0.65;100.00;102060.13;5026049;28;20079;-82
2021/12/22 09:14:45;;;;;;;24.13;11.33;;;;;;;-0.59;100.00;102060.41;5027078;28;20036;-82
2021/12/22 09:17:12;;;;;;;25.53;13.73;;;;;;;-0.59;100.00;102058.72;5030476;28;20123;-82
2021/12/22 09:19:39;;;;;;;30.53;13.40;;;;;;;-0.55;100.00;102059.75;5022320;28;20402;-82
2021/12/22 09:22:05;;;;;;;20.97;11.83;;;;;;;-0.49;100.00;102051.38;5022971;28;20140;-82
2021/12/22 09:24:35;;;;;;;23.47;11.80;;;;;;;-0.48;100.00;102053.16;5027543;28;20036;-83
2021/12/22 09:27:02;;;;;;;24.93;11.27;;;;;;;-0.45;100.00;102045.47;5041458;28;20039;-82
2021/12/22 09:29:29;;;;;;;22.47;11.57;;;;;;;-0.45;100.00;102046.38;5022103;28;20036;-82
2021/12/22 09:31:57;;;;;;;23.37;10.73;;;;;;;-0.41;100.00;102047.41;5027340;28;20636;-82
2021/12/22 09:34:24;;;;;;;23.50;10.10;;;;;;;-0.35;100.00;102039.88;5026260;28;20059;-82
2021/12/22 09:36:50;;;;;;;17.03;10.23;;;;;;;-0.35;100.00;102040.78;5031672;28;20170;-82
2021/12/22 09:39:17;;;;;;;20.33;10.57;;;;;;;-0.35;100.00;102045.09;5029611;28;20041;-82
2021/12/22 09:41:45;;;;;;;19.37;9.33;;;;;;;-0.27;100.00;102041.13;5023081;28;20052;-83
2021/12/22 09:44:12;;;;;;;19.90;9.87;;;;;;;-0.28;100.00;102037.66;5039671;28;20113;-82
2021/12/22 09:46:40;;;;;;;18.70;9.33;;;;;;;-0.26;100.00;102036.81;5003986;28;20480;-82
2021/12/22 09:49:36;;;;;;;17.90;9.60;;;;;;;-0.15;100.00;102028.72;5019742;28;20033;-83
2021/12/22 09:52:17;;;;;;;19.53;10.10;;;;;;;-0.19;100.00;102033.69;5025193;28;20436;-83
2021/12/22 09:54:50;;;;;;;19.40;10.53;;;;;;;-0.17;100.00;102032.03;5018557;28;20049;-83
2021/12/22 09:57:17;;;;;;;16.90;8.40;;;;;;;-0.19;100.00;102028.50;5020878;28;20056;-82
2021/12/22 09:59:46;;;;;;;19.23;9.17;;;;;;;-0.14;100.00;102022.69;5031742;28;20048;-82
2021/12/22 10:02:13;;;;;;;17.53;9.07;;;;;;;-0.13;100.00;102031.38;5031129;28;20048;-82
2021/12/22 10:04:41;;;;;;;17.97;8.57;;;;;;;-0.10;100.00;102027.19;5037119;28;20737;-82
2021/12/22 10:07:09;;;;;;;19.33;9.43;;;;;;;-0.04;100.00;102022.28;5043866;28;20528;-82
2021/12/22 10:09:43;;;;;;;19.60;9.27;;;;;;;-0.07;100.00;102026.47;5039856;28;20497;-82
2021/12/22 10:12:14;;;;;;;19.90;9.23;;;;;;;-0.08;100.00;102027.28;5006027;28;20051;-82
2021/12/22 10:14:49;;;;;;;17.33;8.93;;;;;;;-0.10;100.00;102016.81;5032693;28;20045;-82
2021/12/22 10:17:35;;;;;;;18.20;9.23;;;;;;;-0.01;100.00;102018.91;5027135;28;20049;-83
2021/12/22 10:20:15;;;;;;;16.63;8.60;;;;;;;0.05;100.00;102026.09;5035024;28;20121;-82
2021/12/22 10:22:44;;;;;;;17.67;9.03;;;;;;;-0.04;100.00;102022.28;5037689;28;20048;-82
2021/12/22 10:25:18;;;;;;;18.77;9.57;;;;;;;0.06;100.00;102014.88;5022297;28;20615;-81
2021/12/22 10:27:58;;;;;;;22.57;12.47;;;;;;;0.15;100.00;102018.75;5034936;28;20574;-80
2021/12/22 10:30:28;;;;;;;19.87;10.87;;;;;;;0.11;100.00;102010.78;5021197;28;20055;-80
2021/12/22 10:33:08;;;;;;;18.23;9.67;;;;;;;0.20;99.65;102014.66;5032796;28;20056;-80
2021/12/22 10:35:36;;;;;;;16.67;8.93;;;;;;;0.17;97.81;102016.22;5033134;28;20052;-81
2021/12/22 10:38:04;;;;;;;15.23;9.93;;;;;;;0.20;98.03;102013.78;5035551;28;20405;-81
2021/12/22 10:40:41;;;;;;;19.87;9.70;;;;;;;0.23;97.35;102011.31;5016410;28;20037;-79
2021/12/22 10:43:13;;;;;;;24.70;9.47;;;;;;;0.25;96.31;102010.56;5029342;28;20502;-81
2021/12/22 10:45:40;;;;;;;17.50;9.90;;;;;;;0.22;97.53;102009.53;5031619;28;20643;-80
2021/12/22 10:50:55;;;;;;;19.37;9.57;;;;;;;0.36;96.48;101994.53;5039943;28;20596;-82
2021/12/22 10:53:22;;;;;;;17.47;9.70;;;;;;;0.39;97.01;101989.44;5028969;28;20045;-80
2021/12/22 10:56:02;;;;;;;18.17;10.07;;;;;;;0.46;95.79;101992.38;5037005;28;20048;-81
2021/12/22 10:58:38;;;;;;;16.92;9.35;;;;;;;0.44;96.34;101996.63;5024544;28;20040;-81
2021/12/22 11:01:08;;;;;;;20.00;10.23;;;;;;;0.55;96.75;101989.28;5042548;28;20067;-80
2021/12/22 11:03:52;;;;;;;17.37;9.33;;;;;;;0.69;94.36;101984.66;5030200;28;21296;-81
2021/12/22 11:06:24;;;;;;;19.23;10.45;;;;;;;0.70;93.47;101983.81;5042761;28;20040;-80
2021/12/22 11:09:04;;;;;;;16.47;8.93;;;;;;;0.74;92.25;101989.19;5026383;28;20811;-78
2021/12/22 11:11:36;;;;;;;17.37;9.60;;;;;;;0.73;91.99;101989.13;5051178;28;20135;-80
2021/12/22 11:14:24;;;;;;;16.53;9.40;;;;;;;0.67;93.19;101994.06;5039915;28;20074;-80
2021/12/22 11:17:13;;;;;;;20.83;10.43;;;;;;;0.61;93.42;101986.94;5026444;28;20075;-82
2021/12/22 11:19:46;;;;;;;15.10;9.00;;;;;;;0.69;93.35;101984.66;5016826;28;20035;-81
2021/12/22 11:22:15;;;;;;;20.03;11.43;;;;;;;0.68;93.70;101982.88;5030421;28;20048;-81
2021/12/22 11:24:44;;;;;;;19.70;9.93;;;;;;;0.69;92.68;101982.03;5041033;28;20105;-80
2021/12/22 11:27:14;;;;;;;21.30;10.10;;;;;;;0.77;92.96;101978.94;5021920;28;20066;-80
2021/12/22 11:29:44;;;;;;;19.77;10.63;;;;;;;0.78;93.04;101983.31;5018635;28;20039;-81
2021/12/22 11:32:13;;;;;;;20.90;10.20;;;;;;;0.78;93.84;101985.91;5031414;28;20163;-81
2021/12/22 11:34:44;;;;;;;19.77;10.40;;;;;;;0.77;92.70;101981.53;5028872;28;20041;-80
2021/12/22 11:37:11;;;;;;;18.63;10.23;;;;;;;0.78;92.36;101983.31;5020354;28;20135;-79